Terminal Aerodrome Forecast
Issued by NWS

Home | Current Version | Previous Version | Text Only | Print | Product List | Glossary On
Versions: 1 2 3 4 5 6 7 8 9 10 11 12 13 14 15 16 17 18 19 20
000
FTUS46 KMTR 032331
TAFMRY
TAF
KMRY 032331Z 0400/0424 25010KT P6SM FEW010
     FM040200 24007KT P6SM BKN009
     FM040400 23004KT P6SM OVC007
     FM041400 VRB03KT 5SM BR OVC004
     FM041700 VRB04KT P6SM BKN008
     FM041900 30007KT P6SM SCT010=

USA.gov is the U.S. government's official web portal to all federal, state and local government web resources and services.